sensor_id;sensor_type;location;lat;lon;timestamp;pressure;altitude;pressure_sealevel;temperature;humidity
56084;BME280;41958;52.416;13.428;2023-01-30T00:00:23;100769.66;;;1.35;87.52
56084;BME280;41958;52.416;13.428;2023-01-30T00:02:49;100770.75;;;1.34;87.60
56084;BME280;41958;52.416;13.428;2023-01-30T00:05:14;100758.34;;;1.37;87.47
56084;BME280;41958;52.416;13.428;2023-01-30T00:07:39;100765.66;;;1.51;87.88
56084;BME280;41958;52.416;13.428;2023-01-30T00:10:05;100756.38;;;1.42;87.80
56084;BME280;41958;52.416;13.428;2023-01-30T00:12:30;100746.19;;;1.43;87.41
56084;BME280;41958;52.416;13.428;2023-01-30T00:14:55;100740.44;;;1.39;86.61
56084;BME280;41958;52.416;13.428;2023-01-30T00:17:20;100728.31;;;1.40;87.44
56084;BME280;41958;52.416;13.428;2023-01-30T00:19:46;100728.63;;;1.39;87.72
56084;BME280;41958;52.416;13.428;2023-01-30T00:22:11;100717.41;;;1.25;87.67
56084;BME280;41958;52.416;13.428;2023-01-30T00:24:36;100703.63;;;1.30;87.58
56084;BME280;41958;52.416;13.428;2023-01-30T00:27:01;100698.16;;;1.25;87.78
56084;BME280;41958;52.416;13.428;2023-01-30T00:29:27;100690.19;;;1.23;88.55
56084;BME280;41958;52.416;13.428;2023-01-30T00:31:52;100683.53;;;1.29;87.85
56084;BME280;41958;52.416;13.428;2023-01-30T00:34:17;100678.03;;;1.29;87.13
56084;BME280;41958;52.416;13.428;2023-01-30T00:36:42;100668.13;;;1.28;87.91
56084;BME280;41958;52.416;13.428;2023-01-30T00:39:08;100654.38;;;1.23;87.81
56084;BME280;41958;52.416;13.428;2023-01-30T00:41:33;100641.97;;;1.26;87.73
56084;BME280;41958;52.416;13.428;2023-01-30T00:44:17;100618.84;;;1.27;88.29
56084;BME280;41958;52.416;13.428;2023-01-30T00:47:01;100602.09;;;1.23;87.82
56084;BME280;41958;52.416;13.428;2023-01-30T00:49:33;100606.63;;;1.38;88.22
56084;BME280;41958;52.416;13.428;2023-01-30T00:51:59;100591.03;;;1.28;87.83
56084;BME280;41958;52.416;13.428;2023-01-30T00:54:24;100568.91;;;1.39;88.06
56084;BME280;41958;52.416;13.428;2023-01-30T00:56:49;100550.84;;;1.27;87.82
56084;BME280;41958;52.416;13.428;2023-01-30T00:59:15;100561.84;;;1.27;88.30
56084;BME280;41958;52.416;13.428;2023-01-30T01:01:40;100551.56;;;1.38;87.32
56084;BME280;41958;52.416;13.428;2023-01-30T01:04:06;100536.22;;;1.32;87.44
56084;BME280;41958;52.416;13.428;2023-01-30T01:06:32;100539.31;;;1.25;88.49
56084;BME280;41958;52.416;13.428;2023-01-30T01:08:58;100545.00;;;1.34;88.48
56084;BME280;41958;52.416;13.428;2023-01-30T01:11:23;100551.13;;;1.26;87.58
56084;BME280;41958;52.416;13.428;2023-01-30T01:13:52;100551.38;;;1.29;87.48
56084;BME280;41958;52.416;13.428;2023-01-30T01:16:18;100536.56;;;1.25;87.79
56084;BME280;41958;52.416;13.428;2023-01-30T01:18:43;100526.59;;;1.29;88.20
56084;BME280;41958;52.416;13.428;2023-01-30T01:21:09;100534.91;;;1.24;87.53
56084;BME280;41958;52.416;13.428;2023-01-30T01:23:34;100513.66;;;1.30;88.44
56084;BME280;41958;52.416;13.428;2023-01-30T01:26:02;100485.38;;;1.24;87.95
56084;BME280;41958;52.416;13.428;2023-01-30T01:28:29;100463.34;;;1.24;88.81
56084;BME280;41958;52.416;13.428;2023-01-30T01:30:54;100473.47;;;1.29;87.80
56084;BME280;41958;52.416;13.428;2023-01-30T01:33:19;100474.31;;;1.29;87.44
56084;BME280;41958;52.416;13.428;2023-01-30T01:35:45;100480.81;;;1.39;87.69
56084;BME280;41958;52.416;13.428;2023-01-30T01:38:11;100490.41;;;1.41;88.02
56084;BME280;41958;52.416;13.428;2023-01-30T01:40:37;100480.31;;;1.31;88.45
56084;BME280;41958;52.416;13.428;2023-01-30T01:43:23;100470.34;;;1.35;87.45
56084;BME280;41958;52.416;13.428;2023-01-30T01:45:52;100472.59;;;1.33;87.48
56084;BME280;41958;52.416;13.428;2023-01-30T01:48:31;100490.28;;;1.27;86.95
56084;BME280;41958;52.416;13.428;2023-01-30T01:51:02;100502.81;;;1.39;87.72
56084;BME280;41958;52.416;13.428;2023-01-30T01:53:34;100492.16;;;1.32;86.91
56084;BME280;41958;52.416;13.428;2023-01-30T01:56:02;100491.81;;;1.39;87.21
56084;BME280;41958;52.416;13.428;2023-01-30T01:58:42;100484.72;;;1.32;87.02
56084;BME280;41958;52.416;13.428;2023-01-30T02:01:10;100478.34;;;1.37;87.51
56084;BME280;41958;52.416;13.428;2023-01-30T02:03:41;100465.75;;;1.31;88.47
56084;BME280;41958;52.416;13.428;2023-01-30T02:06:09;100450.03;;;1.31;87.92
56084;BME280;41958;52.416;13.428;2023-01-30T02:08:42;100443.72;;;1.31;89.60
56084;BME280;41958;52.416;13.428;2023-01-30T02:11:11;100437.97;;;1.27;88.72
56084;BME280;41958;52.416;13.428;2023-01-30T02:13:38;100417.91;;;1.27;89.72
56084;BME280;41958;52.416;13.428;2023-01-30T02:16:05;100407.34;;;1.34;90.56
56084;BME280;41958;52.416;13.428;2023-01-30T02:18:33;100410.00;;;1.20;91.24
56084;BME280;41958;52.416;13.428;2023-01-30T02:21:10;100406.56;;;1.09;92.03
56084;BME280;41958;52.416;13.428;2023-01-30T02:24:06;100397.25;;;1.05;92.84
56084;BME280;41958;52.416;13.428;2023-01-30T02:26:52;100371.59;;;1.10;93.70
56084;BME280;41958;52.416;13.428;2023-01-30T02:32:08;100357.81;;;1.10;94.67
56084;BME280;41958;52.416;13.428;2023-01-30T02:34:46;100364.09;;;1.15;94.38
56084;BME280;41958;52.416;13.428;2023-01-30T02:40:06;100352.63;;;1.08;93.52
56084;BME280;41958;52.416;13.428;2023-01-30T02:42:38;100358.31;;;1.17;93.55
56084;BME280;41958;52.416;13.428;2023-01-30T02:47:44;100354.88;;;1.25;93.09
56084;BME280;41958;52.416;13.428;2023-01-30T02:50:19;100347.44;;;1.26;92.63
56084;BME280;41958;52.416;13.428;2023-01-30T02:52:47;100338.00;;;1.13;93.67
56084;BME280;41958;52.416;13.428;2023-01-30T02:55:24;100333.22;;;1.18;95.26
56084;BME280;41958;52.416;13.428;2023-01-30T02:57:50;100321.13;;;1.20;97.76
56084;BME280;41958;52.416;13.428;2023-01-30T03:00:20;100309.50;;;1.04;98.53
56084;BME280;41958;52.416;13.428;2023-01-30T03:03:06;100304.78;;;1.04;99.64
56084;BME280;41958;52.416;13.428;2023-01-30T03:05:47;100295.72;;;1.04;100.00
56084;BME280;41958;52.416;13.428;2023-01-30T03:11:09;100268.28;;;0.98;100.00
56084;BME280;41958;52.416;13.428;2023-01-30T03:13:54;100276.97;;;1.06;100.00
56084;BME280;41958;52.416;13.428;2023-01-30T03:16:39;100264.13;;;1.01;100.00
56084;BME280;41958;52.416;13.428;2023-01-30T03:19:09;100271.41;;;1.11;100.00
56084;BME280;41958;52.416;13.428;2023-01-30T03:21:40;100246.94;;;1.09;99.65
56084;BME280;41958;52.416;13.428;2023-01-30T03:24:06;100260.94;;;1.13;99.21
56084;BME280;41958;52.416;13.428;2023-01-30T03:26:34;100243.97;;;1.06;99.19
56084;BME280;41958;52.416;13.428;2023-01-30T03:29:01;100245.38;;;1.22;99.45
56084;BME280;41958;52.416;13.428;2023-01-30T03:31:26;100238.22;;;1.21;98.67
56084;BME280;41958;52.416;13.428;2023-01-30T03:33:52;100239.88;;;1.22;98.69
56084;BME280;41958;52.416;13.428;2023-01-30T03:36:17;100229.06;;;1.26;98.14
56084;BME280;41958;52.416;13.428;2023-01-30T03:38:42;100236.72;;;1.29;97.70
56084;BME280;41958;52.416;13.428;2023-01-30T03:41:08;100215.38;;;1.21;98.28
56084;BME280;41958;52.416;13.428;2023-01-30T03:43:33;100228.25;;;1.25;97.16
56084;BME280;41958;52.416;13.428;2023-01-30T03:45:58;100224.28;;;1.31;96.84
56084;BME280;41958;52.416;13.428;2023-01-30T03:48:23;100236.56;;;1.39;96.82
56084;BME280;41958;52.416;13.428;2023-01-30T03:50:49;100223.81;;;1.43;97.65
56084;BME280;41958;52.416;13.428;2023-01-30T03:53:14;100214.16;;;1.46;96.69
56084;BME280;41958;52.416;13.428;2023-01-30T03:55:39;100203.53;;;1.39;97.27
56084;BME280;41958;52.416;13.428;2023-01-30T03:58:05;100197.00;;;1.49;96.50
56084;BME280;41958;52.416;13.428;2023-01-30T04:00:30;100198.88;;;1.54;97.19
56084;BME280;41958;52.416;13.428;2023-01-30T04:02:55;100191.59;;;1.44;97.60
56084;BME280;41958;52.416;13.428;2023-01-30T04:05:21;100194.78;;;1.51;98.56
56084;BME280;41958;52.416;13.428;2023-01-30T04:07:47;100180.88;;;1.42;98.40
56084;BME280;41958;52.416;13.428;2023-01-30T04:10:12;100173.78;;;1.55;99.27
56084;BME280;41958;52.416;13.428;2023-01-30T04:12:40;100164.59;;;1.46;99.28
56084;BME280;41958;52.416;13.428;2023-01-30T04:15:07;100165.69;;;1.45;98.58
56084;BME280;41958;52.416;13.428;2023-01-30T04:17:32;100165.84;;;1.54;98.45
56084;BME280;41958;52.416;13.428;2023-01-30T04:19:57;100156.16;;;1.56;99.75
56084;BME280;41958;52.416;13.428;2023-01-30T04:22:23;100148.00;;;1.65;98.53
56084;BME280;41958;52.416;13.428;2023-01-30T04:24:48;100157.19;;;1.60;97.81
56084;BME280;41958;52.416;13.428;2023-01-30T04:27:13;100148.00;;;1.65;98.49
56084;BME280;41958;52.416;13.428;2023-01-30T04:29:38;100144.44;;;1.64;97.79
56084;BME280;41958;52.416;13.428;2023-01-30T04:32:04;100141.47;;;1.75;97.41
56084;BME280;41958;52.416;13.428;2023-01-30T04:34:29;100148.81;;;1.79;97.33
56084;BME280;41958;52.416;13.428;2023-01-30T04:36:54;100139.84;;;1.74;96.75
56084;BME280;41958;52.416;13.428;2023-01-30T04:39:19;100144.66;;;1.82;97.33
56084;BME280;41958;52.416;13.428;2023-01-30T04:41:45;100120.75;;;1.91;96.61
56084;BME280;41958;52.416;13.428;2023-01-30T04:44:10;100135.66;;;1.90;96.04
56084;BME280;41958;52.416;13.428;2023-01-30T04:46:35;100121.38;;;1.88;95.95
56084;BME280;41958;52.416;13.428;2023-01-30T04:49:00;100127.59;;;1.94;95.99
56084;BME280;41958;52.416;13.428;2023-01-30T04:51:26;100122.38;;;1.92;95.51
56084;BME280;41958;52.416;13.428;2023-01-30T04:53:51;100113.22;;;1.97;96.06
56084;BME280;41958;52.416;13.428;2023-01-30T04:56:16;100110.75;;;1.95;96.92
56084;BME280;41958;52.416;13.428;2023-01-30T04:58:41;100105.13;;;2.00;96.39
56084;BME280;41958;52.416;13.428;2023-01-30T05:03:39;100096.75;;;2.06;97.12
56084;BME280;41958;52.416;13.428;2023-01-30T05:06:04;100086.38;;;1.89;97.97
56084;BME280;41958;52.416;13.428;2023-01-30T05:08:29;100097.91;;;1.91;98.97
56084;BME280;41958;52.416;13.428;2023-01-30T05:10:56;100087.19;;;1.89;98.65
56084;BME280;41958;52.416;13.428;2023-01-30T05:13:21;100072.81;;;1.78;99.00
56084;BME280;41958;52.416;13.428;2023-01-30T05:15:47;100069.44;;;1.67;100.00
56084;BME280;41958;52.416;13.428;2023-01-30T05:18:12;100068.94;;;1.79;100.00
56084;BME280;41958;52.416;13.428;2023-01-30T05:20:37;100071.19;;;1.63;100.00
56084;BME280;41958;52.416;13.428;2023-01-30T05:23:02;100068.91;;;1.65;100.00
56084;BME280;41958;52.416;13.428;2023-01-30T05:25:27;100069.44;;;1.67;100.00
56084;BME280;41958;52.416;13.428;2023-01-30T05:27:53;100064.44;;;1.56;100.00
56084;BME280;41958;52.416;13.428;2023-01-30T05:30:18;100065.16;;;1.47;100.00
56084;BME280;41958;52.416;13.428;2023-01-30T05:32:43;100059.56;;;1.52;100.00
56084;BME280;41958;52.416;13.428;2023-01-30T05:35:09;100056.28;;;1.50;100.00
56084;BME280;41958;52.416;13.428;2023-01-30T05:37:34;100042.31;;;1.47;100.00
56084;BME280;41958;52.416;13.428;2023-01-30T05:39:59;100021.59;;;1.35;100.00
56084;BME280;41958;52.416;13.428;2023-01-30T05:42:25;100043.03;;;1.52;100.00
56084;BME280;41958;52.416;13.428;2023-01-30T05:44:50;100031.91;;;1.44;100.00
56084;BME280;41958;52.416;13.428;2023-01-30T05:47:15;100026.81;;;1.51;100.00
56084;BME280;41958;52.416;13.428;2023-01-30T05:49:40;100027.94;;;1.50;100.00
56084;BME280;41958;52.416;13.428;2023-01-30T05:52:05;100019.28;;;1.43;100.00
56084;BME280;41958;52.416;13.428;2023-01-30T05:54:31;100023.94;;;1.42;100.00
56084;BME280;41958;52.416;13.428;2023-01-30T05:56:56;100019.78;;;1.45;100.00
56084;BME280;41958;52.416;13.428;2023-01-30T05:59:21;100005.09;;;1.49;100.00
56084;BME280;41958;52.416;13.428;2023-01-30T06:01:47;99995.69;;;1.50;100.00
56084;BME280;41958;52.416;13.428;2023-01-30T06:04:12;99994.28;;;1.53;100.00
56084;BME280;41958;52.416;13.428;2023-01-30T06:06:37;99993.56;;;1.47;100.00
56084;BME280;41958;52.416;13.428;2023-01-30T06:09:02;99991.44;;;1.44;100.00
56084;BME280;41958;52.416;13.428;2023-01-30T06:11:28;99989.38;;;1.50;100.00
56084;BME280;41958;52.416;13.428;2023-01-30T06:13:53;99985.63;;;1.46;100.00
56084;BME280;41958;52.416;13.428;2023-01-30T06:16:19;99987.25;;;1.47;100.00
56084;BME280;41958;52.416;13.428;2023-01-30T06:18:45;99987.03;;;1.57;100.00
56084;BME280;41958;52.416;13.428;2023-01-30T06:21:14;99999.69;;;1.58;100.00
56084;BME280;41958;52.416;13.428;2023-01-30T06:23:40;99990.19;;;1.64;100.00
56084;BME280;41958;52.416;13.428;2023-01-30T06:26:05;99979.03;;;1.69;100.00
56084;BME280;41958;52.416;13.428;2023-01-30T06:28:31;99984.34;;;1.80;100.00
56084;BME280;41958;52.416;13.428;2023-01-30T06:30:56;99961.94;;;1.59;100.00
56084;BME280;41958;52.416;13.428;2023-01-30T06:33:22;99985.66;;;1.82;100.00
56084;BME280;41958;52.416;13.428;2023-01-30T06:35:49;99984.13;;;1.76;100.00
56084;BME280;41958;52.416;13.428;2023-01-30T06:38:15;99994.00;;;1.91;100.00
56084;BME280;41958;52.416;13.428;2023-01-30T06:40:43;99995.63;;;1.92;100.00
56084;BME280;41958;52.416;13.428;2023-01-30T06:43:09;100008.78;;;1.95;100.00
56084;BME280;41958;52.416;13.428;2023-01-30T06:45:34;99980.75;;;1.93;100.00
56084;BME280;41958;52.416;13.428;2023-01-30T06:47:59;99978.72;;;1.85;100.00
56084;BME280;41958;52.416;13.428;2023-01-30T06:50:26;99996.53;;;2.01;100.00
56084;BME280;41958;52.416;13.428;2023-01-30T06:52:53;99982.94;;;2.05;100.00
56084;BME280;41958;52.416;13.428;2023-01-30T06:55:21;99996.59;;;2.10;100.00
56084;BME280;41958;52.416;13.428;2023-01-30T06:57:46;99984.66;;;2.15;100.00
56084;BME280;41958;52.416;13.428;2023-01-30T07:00:17;99986.19;;;2.07;100.00
56084;BME280;41958;52.416;13.428;2023-01-30T07:02:42;99997.44;;;2.11;100.00
56084;BME280;41958;52.416;13.428;2023-01-30T07:05:08;99968.16;;;2.01;100.00
56084;BME280;41958;52.416;13.428;2023-01-30T07:07:34;99974.53;;;2.10;100.00
56084;BME280;41958;52.416;13.428;2023-01-30T07:10:00;99973.09;;;2.13;100.00
56084;BME280;41958;52.416;13.428;2023-01-30T07:12:26;99968.59;;;2.17;100.00
56084;BME280;41958;52.416;13.428;2023-01-30T07:14:52;99955.69;;;2.26;100.00
56084;BME280;41958;52.416;13.428;2023-01-30T07:17:19;99962.66;;;2.24;100.00
56084;BME280;41958;52.416;13.428;2023-01-30T07:19:44;99954.09;;;2.25;100.00
56084;BME280;41958;52.416;13.428;2023-01-30T07:22:09;99958.03;;;2.33;100.00
56084;BME280;41958;52.416;13.428;2023-01-30T07:24:34;99962.72;;;2.32;100.00
56084;BME280;41958;52.416;13.428;2023-01-30T07:27:00;99957.22;;;2.32;100.00
56084;BME280;41958;52.416;13.428;2023-01-30T07:29:25;99941.03;;;2.40;100.00
56084;BME280;41958;52.416;13.428;2023-01-30T07:31:51;99940.41;;;2.43;100.00
56084;BME280;41958;52.416;13.428;2023-01-30T07:34:16;99945.22;;;2.37;100.00
56084;BME280;41958;52.416;13.428;2023-01-30T07:36:42;99950.63;;;2.42;100.00
56084;BME280;41958;52.416;13.428;2023-01-30T07:39:07;99949.38;;;2.48;100.00
56084;BME280;41958;52.416;13.428;2023-01-30T07:41:33;99951.84;;;2.59;100.00
56084;BME280;41958;52.416;13.428;2023-01-30T07:43:58;99951.97;;;2.53;100.00
56084;BME280;41958;52.416;13.428;2023-01-30T07:46:24;99952.69;;;2.59;100.00
56084;BME280;41958;52.416;13.428;2023-01-30T07:48:49;99950.53;;;2.56;100.00
56084;BME280;41958;52.416;13.428;2023-01-30T07:51:15;99944.78;;;2.66;100.00
56084;BME280;41958;52.416;13.428;2023-01-30T07:53:40;99958.91;;;2.74;100.00
56084;BME280;41958;52.416;13.428;2023-01-30T07:56:07;99961.88;;;2.77;100.00
56084;BME280;41958;52.416;13.428;2023-01-30T07:58:32;99963.50;;;2.78;100.00
56084;BME280;41958;52.416;13.428;2023-01-30T08:00:57;99958.59;;;2.75;100.00
56084;BME280;41958;52.416;13.428;2023-01-30T08:03:22;99963.63;;;2.73;100.00
56084;BME280;41958;52.416;13.428;2023-01-30T08:05:48;99966.44;;;2.82;100.00
56084;BME280;41958;52.416;13.428;2023-01-30T08:08:14;99971.94;;;2.82;100.00
56084;BME280;41958;52.416;13.428;2023-01-30T08:10:39;99968.88;;;2.83;100.00
56084;BME280;41958;52.416;13.428;2023-01-30T08:13:04;99961.91;;;2.86;100.00
56084;BME280;41958;52.416;13.428;2023-01-30T08:15:30;99972.31;;;2.89;100.00
56084;BME280;41958;52.416;13.428;2023-01-30T08:17:57;99965.84;;;2.94;100.00
56084;BME280;41958;52.416;13.428;2023-01-30T08:20:24;99972.16;;;2.94;100.00
56084;BME280;41958;52.416;13.428;2023-01-30T08:22:49;99966.03;;;2.97;100.00
56084;BME280;41958;52.416;13.428;2023-01-30T08:25:15;99956.13;;;3.05;100.00
56084;BME280;41958;52.416;13.428;2023-01-30T08:27:40;99962.84;;;3.13;100.00
56084;BME280;41958;52.416;13.428;2023-01-30T08:30:06;99972.44;;;3.15;100.00
56084;BME280;41958;52.416;13.428;2023-01-30T08:32:32;99967.25;;;3.23;100.00
56084;BME280;41958;52.416;13.428;2023-01-30T08:34:57;99952.00;;;3.25;100.00
56084;BME280;41958;52.416;13.428;2023-01-30T08:37:22;99936.41;;;3.29;100.00
56084;BME280;41958;52.416;13.428;2023-01-30T08:39:47;99942.59;;;3.35;100.00
56084;BME280;41958;52.416;13.428;2023-01-30T08:42:12;99939.03;;;3.34;100.00
56084;BME280;41958;52.416;13.428;2023-01-30T08:44:38;99944.09;;;3.41;100.00
56084;BME280;41958;52.416;13.428;2023-01-30T08:47:03;99947.22;;;3.57;100.00
56084;BME280;41958;52.416;13.428;2023-01-30T08:49:28;99950.44;;;3.50;100.00
56084;BME280;41958;52.416;13.428;2023-01-30T08:51:53;99950.13;;;3.52;100.00
56084;BME280;41958;52.416;13.428;2023-01-30T08:54:19;99942.47;;;3.49;100.00
56084;BME280;41958;52.416;13.428;2023-01-30T08:56:44;99942.34;;;3.63;100.00
56084;BME280;41958;52.416;13.428;2023-01-30T08:59:09;99955.50;;;3.66;100.00
56084;BME280;41958;52.416;13.428;2023-01-30T09:01:35;99944.31;;;3.71;100.00
56084;BME280;41958;52.416;13.428;2023-01-30T09:04:02;99947.88;;;3.71;100.00
56084;BME280;41958;52.416;13.428;2023-01-30T09:06:27;99938.94;;;3.75;100.00
56084;BME280;41958;52.416;13.428;2023-01-30T09:08:52;99946.91;;;3.85;100.00
56084;BME280;41958;52.416;13.428;2023-01-30T09:11:17;99946.56;;;3.86;100.00
56084;BME280;41958;52.416;13.428;2023-01-30T09:13:43;99947.09;;;3.88;100.00
56084;BME280;41958;52.416;13.428;2023-01-30T09:16:09;99952.13;;;4.04;100.00
56084;BME280;41958;52.416;13.428;2023-01-30T09:18:42;99945.47;;;4.14;100.00
56084;BME280;41958;52.416;13.428;2023-01-30T09:21:10;99944.47;;;4.18;100.00
56084;BME280;41958;52.416;13.428;2023-01-30T09:23:35;99948.84;;;4.28;100.00
56084;BME280;41958;52.416;13.428;2023-01-30T09:26:01;99948.69;;;4.33;100.00
56084;BME280;41958;52.416;13.428;2023-01-30T09:28:27;99947.06;;;4.41;100.00
56084;BME280;41958;52.416;13.428;2023-01-30T09:30:55;99956.94;;;4.60;100.00
56084;BME280;41958;52.416;13.428;2023-01-30T09:33:20;99956.78;;;4.65;100.00
56084;BME280;41958;52.416;13.428;2023-01-30T09:35:47;99960.16;;;4.70;100.00
56084;BME280;41958;52.416;13.428;2023-01-30T09:38:12;99955.28;;;4.67;100.00
56084;BME280;41958;52.416;13.428;2023-01-30T09:40:51;99960.28;;;4.83;100.00
56084;BME280;41958;52.416;13.428;2023-01-30T09:46:45;99962.72;;;4.93;100.00
56084;BME280;41958;52.416;13.428;2023-01-30T09:52:44;99956.94;;;5.07;100.00
56084;BME280;41958;52.416;13.428;2023-01-30T09:55:25;99944.91;;;5.12;100.00
56084;BME280;41958;52.416;13.428;2023-01-30T09:57:52;99947.34;;;5.04;100.00
56084;BME280;41958;52.416;13.428;2023-01-30T10:00:35;99946.72;;;5.07;100.00
56084;BME280;41958;52.416;13.428;2023-01-30T10:05:49;99960.59;;;5.29;100.00
56084;BME280;41958;52.416;13.428;2023-01-30T10:11:03;99957.41;;;5.18;100.00
56084;BME280;41958;52.416;13.428;2023-01-30T10:13:44;99951.41;;;5.16;100.00
56084;BME280;41958;52.416;13.428;2023-01-30T10:16:19;99939.47;;;5.15;100.00
56084;BME280;41958;52.416;13.428;2023-01-30T10:18:54;99940.34;;;5.07;100.00
56084;BME280;41958;52.416;13.428;2023-01-30T10:21:29;99938.97;;;5.22;99.21
56084;BME280;41958;52.416;13.428;2023-01-30T10:26:30;99939.19;;;5.47;98.57
56084;BME280;41958;52.416;13.428;2023-01-30T10:29:03;99949.78;;;5.45;97.03
56084;BME280;41958;52.416;13.428;2023-01-30T10:31:38;99942.91;;;5.51;96.85
56084;BME280;41958;52.416;13.428;2023-01-30T10:34:21;99943.84;;;5.55;96.19
56084;BME280;41958;52.416;13.428;2023-01-30T10:36:56;99937.03;;;5.73;95.01
56084;BME280;41958;52.416;13.428;2023-01-30T10:42:16;99947.88;;;6.08;93.65
56084;BME280;41958;52.416;13.428;2023-01-30T10:44:44;99920.00;;;5.84;91.17
56084;BME280;41958;52.416;13.428;2023-01-30T10:48:11;99929.00;;;6.02;91.98
56084;BME280;41958;52.416;13.428;2023-01-30T10:50:14;99929.94;;;5.85;90.63
56084;BME280;41958;52.416;13.428;2023-01-30T10:52:58;99930.06;;;5.88;89.09
56084;BME280;41958;52.416;13.428;2023-01-30T10:55:34;99929.94;;;5.85;89.70
56084;BME280;41958;52.416;13.428;2023-01-30T11:00:58;99922.66;;;6.01;88.84
56084;BME280;41958;52.416;13.428;2023-01-30T11:03:38;99921.41;;;5.90;90.02
56084;BME280;41958;52.416;13.428;2023-01-30T11:06:09;99920.81;;;5.84;88.15
56084;BME280;41958;52.416;13.428;2023-01-30T11:08:35;99921.41;;;5.90;87.26
56084;BME280;41958;52.416;13.428;2023-01-30T11:11:20;99912.25;;;5.98;87.28
56084;BME280;41958;52.416;13.428;2023-01-30T11:13:47;99919.75;;;5.98;86.73
56084;BME280;41958;52.416;13.428;2023-01-30T11:16:12;99907.31;;;6.04;87.06
56084;BME280;41958;52.416;13.428;2023-01-30T11:18:47;99904.13;;;5.93;88.10
56084;BME280;41958;52.416;13.428;2023-01-30T11:21:19;99904.50;;;5.83;87.92
56084;BME280;41958;52.416;13.428;2023-01-30T11:23:46;99900.13;;;6.03;88.86
56084;BME280;41958;52.416;13.428;2023-01-30T11:26:34;99894.31;;;5.96;88.26
56084;BME280;41958;52.416;13.428;2023-01-30T11:29:13;99882.22;;;6.00;87.16
56084;BME280;41958;52.416;13.428;2023-01-30T11:31:39;99872.09;;;6.17;87.20
56084;BME280;41958;52.416;13.428;2023-01-30T11:34:12;99871.66;;;6.15;86.55
56084;BME280;41958;52.416;13.428;2023-01-30T11:36:38;99857.22;;;6.21;87.58
56084;BME280;41958;52.416;13.428;2023-01-30T11:39:19;99851.78;;;6.25;86.80
56084;BME280;41958;52.416;13.428;2023-01-30T11:44:24;99837.09;;;6.24;86.25
56084;BME280;41958;52.416;13.428;2023-01-30T11:46:49;99845.56;;;6.28;85.61
56084;BME280;41958;52.416;13.428;2023-01-30T11:49:17;99841.78;;;6.45;86.67
56084;BME280;41958;52.416;13.428;2023-01-30T11:51:46;99842.56;;;6.46;85.58
56084;BME280;41958;52.416;13.428;2023-01-30T11:54:17;99831.16;;;6.60;85.33
56084;BME280;41958;52.416;13.428;2023-01-30T11:56:52;99820.38;;;6.46;83.74
56084;BME280;41958;52.416;13.428;2023-01-30T11:59:32;99842.84;;;6.65;84.16
56084;BME280;41958;52.416;13.428;2023-01-30T12:04:50;99822.38;;;6.95;81.77
56084;BME280;41958;52.416;13.428;2023-01-30T12:07:24;99808.22;;;7.00;80.82
56084;BME280;41958;52.416;13.428;2023-01-30T12:09:50;99799.66;;;7.05;79.54
56084;BME280;41958;52.416;13.428;2023-01-30T12:12:31;99801.03;;;7.23;78.67
56084;BME280;41958;52.416;13.428;2023-01-30T12:15:12;99799.25;;;7.43;77.81
56084;BME280;41958;52.416;13.428;2023-01-30T12:20:55;99810.34;;;7.56;76.75
56084;BME280;41958;52.416;13.428;2023-01-30T12:28:42;99798.88;;;7.04;78.44
56084;BME280;41958;52.416;13.428;2023-01-30T12:31:17;99792.28;;;6.97;78.97
56084;BME280;41958;52.416;13.428;2023-01-30T12:33:43;99797.81;;;6.97;77.20
56084;BME280;41958;52.416;13.428;2023-01-30T12:36:39;99794.84;;;6.89;78.46
56084;BME280;41958;52.416;13.428;2023-01-30T12:42:25;99797.72;;;6.56;84.21
56084;BME280;41958;52.416;13.428;2023-01-30T12:45:21;99797.91;;;6.26;88.08
56084;BME280;41958;52.416;13.428;2023-01-30T12:48:11;99790.84;;;6.16;87.59
56084;BME280;41958;52.416;13.428;2023-01-30T12:54:11;99785.53;;;6.23;86.51
56084;BME280;41958;52.416;13.428;2023-01-30T13:05:21;99774.09;;;6.37;80.39
56084;BME280;41958;52.416;13.428;2023-01-30T13:08:01;99782.78;;;6.48;80.29
56084;BME280;41958;52.416;13.428;2023-01-30T13:13:13;99786.03;;;6.50;77.60
56084;BME280;41958;52.416;13.428;2023-01-30T13:15:59;99782.13;;;6.64;76.42
56084;BME280;41958;52.416;13.428;2023-01-30T13:18:50;99783.38;;;6.66;78.17
56084;BME280;41958;52.416;13.428;2023-01-30T13:21:29;99782.91;;;6.52;77.06
56084;BME280;41958;52.416;13.428;2023-01-30T13:24:09;99780.47;;;6.50;77.20
56084;BME280;41958;52.416;13.428;2023-01-30T13:26:38;99751.81;;;6.34;77.77
56084;BME280;41958;52.416;13.428;2023-01-30T13:29:17;99761.16;;;6.41;78.27
56084;BME280;41958;52.416;13.428;2023-01-30T13:31:52;99772.03;;;6.47;77.43
56084;BME280;41958;52.416;13.428;2023-01-30T13:34:27;99774.94;;;6.38;77.88
56084;BME280;41958;52.416;13.428;2023-01-30T13:36:59;99776.66;;;6.43;77.78
56084;BME280;41958;52.416;13.428;2023-01-30T13:39:46;99752.84;;;6.54;78.34
56084;BME280;41958;52.416;13.428;2023-01-30T13:42:29;99741.28;;;6.52;77.86
56084;BME280;41958;52.416;13.428;2023-01-30T13:44:57;99735.72;;;6.39;78.38
56084;BME280;41958;52.416;13.428;2023-01-30T13:47:33;99758.50;;;6.45;78.97
56084;BME280;41958;52.416;13.428;2023-01-30T13:50:35;99761.75;;;6.47;81.38
56084;BME280;41958;52.416;13.428;2023-01-30T13:53:14;99764.28;;;6.28;85.99
56084;BME280;41958;52.416;13.428;2023-01-30T13:58:52;99755.44;;;5.67;91.67
56084;BME280;41958;52.416;13.428;2023-01-30T14:01:20;99737.22;;;5.45;93.44
56084;BME280;41958;52.416;13.428;2023-01-30T14:03:47;99747.69;;;5.39;95.23
56084;BME280;41958;52.416;13.428;2023-01-30T14:06:29;99739.59;;;5.34;95.25
56084;BME280;41958;52.416;13.428;2023-01-30T14:08:56;99733.38;;;5.37;96.75
56084;BME280;41958;52.416;13.428;2023-01-30T14:11:31;99761.03;;;5.25;97.67